createdAt,value
2019-01-21T00:00:17.760Z,23.80
2019-01-21T00:02:46.451Z,22.27
2019-01-21T00:05:15.010Z,22.73
2019-01-21T00:07:43.638Z,27.43
2019-01-21T00:10:12.290Z,20.53
2019-01-21T00:12:40.878Z,24.10
2019-01-21T00:15:09.661Z,24.37
2019-01-21T00:17:38.222Z,27.17
2019-01-21T00:20:07.656Z,25.60
2019-01-21T00:22:36.235Z,25.97
2019-01-21T00:25:06.259Z,24.97
2019-01-21T00:27:34.848Z,28.80
2019-01-21T00:30:04.602Z,26.20
2019-01-21T00:32:33.210Z,24.13
2019-01-21T00:35:01.790Z,24.07
2019-01-21T00:37:30.359Z,25.50
2019-01-21T00:39:58.950Z,24.73
2019-01-21T00:42:27.529Z,25.20
2019-01-21T00:44:56.151Z,28.40
2019-01-21T00:47:29.768Z,25.87
2019-01-21T00:49:55.010Z,25.80
2019-01-21T00:52:23.573Z,23.03
2019-01-21T00:54:52.202Z,26.90
2019-01-21T00:57:20.773Z,27.13
2019-01-21T00:59:49.366Z,24.70
2019-01-21T01:02:17.943Z,27.43
2019-01-21T01:04:46.539Z,22.97
2019-01-21T01:07:15.186Z,25.13
2019-01-21T01:09:43.802Z,25.40
2019-01-21T01:12:12.386Z,27.63
2019-01-21T01:14:40.982Z,24.47
2019-01-21T01:17:09.555Z,22.90
2019-01-21T01:19:38.158Z,35.33
2019-01-21T01:22:06.733Z,29.63
2019-01-21T01:24:35.335Z,28.30
2019-01-21T01:27:03.915Z,28.80
2019-01-21T01:29:32.521Z,31.13
2019-01-21T01:32:01.101Z,29.83
2019-01-21T01:34:29.730Z,27.30
2019-01-21T01:36:58.588Z,27.63
2019-01-21T01:39:27.189Z,29.07
2019-01-21T01:41:55.817Z,30.97
2019-01-21T01:44:24.395Z,29.83
2019-01-21T01:46:52.998Z,31.43
2019-01-21T01:49:21.592Z,28.97
2019-01-21T01:51:50.177Z,29.50
2019-01-21T01:54:18.766Z,31.60
2019-01-21T01:56:47.377Z,33.93
2019-01-21T01:59:16.010Z,34.27
2019-01-21T02:01:44.610Z,34.80
2019-01-21T02:04:13.222Z,28.10
2019-01-21T02:06:41.795Z,29.23
2019-01-21T02:09:10.402Z,28.50
2019-01-21T02:11:39.608Z,35.30
2019-01-21T02:14:08.235Z,31.23
2019-01-21T02:16:36.797Z,27.17
2019-01-21T02:19:05.483Z,33.33
2019-01-21T02:21:36.358Z,27.30
2019-01-21T02:24:06.514Z,29.83
2019-01-21T02:26:38.165Z,34.07
2019-01-21T02:29:09.620Z,32.77
2019-01-21T02:31:41.303Z,33.93
2019-01-21T02:34:15.917Z,37.73
2019-01-21T02:37:08.186Z,27.60
2019-01-21T02:39:45.560Z,27.63
2019-01-21T02:42:22.970Z,32.30
2019-01-21T02:45:15.201Z,35.73
2019-01-21T02:47:46.813Z,37.40
2019-01-21T02:50:30.666Z,34.17
2019-01-21T02:53:02.366Z,32.73
2019-01-21T02:55:39.849Z,31.90
2019-01-21T02:58:26.539Z,34.23
2019-01-21T03:01:00.764Z,37.20
2019-01-21T03:03:35.018Z,34.67
2019-01-21T03:06:06.682Z,31.23
2019-01-21T03:08:59.442Z,35.27
2019-01-21T03:11:51.895Z,38.77
2019-01-21T03:14:35.143Z,39.33
2019-01-21T03:17:09.312Z,35.53
2019-01-21T03:19:55.966Z,33.30
2019-01-21T03:22:54.144Z,38.13
2019-01-21T03:25:28.651Z,32.40
2019-01-21T03:28:21.507Z,34.07
2019-01-21T03:31:12.531Z,40.57
2019-01-21T03:33:46.983Z,36.13
2019-01-21T03:36:36.511Z,35.53
2019-01-21T03:39:41.691Z,32.47
2019-01-21T03:42:13.378Z,34.10
2019-01-21T03:45:01.449Z,29.93
2019-01-21T03:47:33.164Z,28.13
2019-01-21T03:50:26.031Z,30.63
2019-01-21T03:53:00.549Z,32.70
2019-01-21T03:55:29.773Z,35.80
2019-01-21T03:58:09.930Z,35.27
2019-01-21T04:00:50.706Z,36.70
2019-01-21T04:03:22.374Z,37.03
2019-01-21T04:06:00.182Z,41.03
2019-01-21T04:08:50.122Z,48.50
2019-01-21T04:11:28.185Z,44.03
2019-01-21T04:14:24.418Z,41.07
2019-01-21T04:17:19.570Z,40.50
2019-01-21T04:19:51.219Z,39.33
2019-01-21T04:22:25.361Z,39.53
2019-01-21T04:25:02.861Z,40.87
2019-01-21T04:27:46.164Z,46.10
2019-01-21T04:30:34.391Z,39.50
2019-01-21T04:33:12.011Z,39.90
2019-01-21T04:35:58.829Z,39.53
2019-01-21T04:38:47.902Z,37.53
2019-01-21T04:41:34.621Z,43.03
2019-01-21T04:44:18.131Z,41.40
2019-01-21T04:46:55.402Z,41.50
2019-01-21T04:49:42.276Z,39.57
2019-01-21T04:52:32.080Z,41.40
2019-01-21T04:55:20.188Z,43.50
2019-01-21T04:58:14.646Z,34.90
2019-01-21T05:01:03.943Z,38.57
2019-01-21T05:03:50.650Z,37.00
2019-01-21T05:06:46.349Z,39.00
2019-01-21T05:09:20.543Z,39.20
2019-01-21T05:12:22.370Z,38.33
2019-01-21T05:14:56.767Z,42.00
2019-01-21T05:17:49.457Z,45.27
2019-01-21T05:20:47.040Z,49.30
2019-01-21T05:23:35.284Z,45.23
2019-01-21T05:26:12.768Z,42.80
2019-01-21T05:28:47.152Z,45.70
2019-01-21T05:31:52.442Z,41.00
2019-01-21T05:34:29.631Z,43.57
2019-01-21T05:37:15.577Z,39.73
2019-01-21T05:42:28.537Z,43.83
2019-01-21T05:45:22.571Z,41.00
2019-01-21T05:48:19.670Z,38.70
2019-01-21T05:50:56.975Z,33.17
2019-01-21T05:53:43.874Z,38.97
2019-01-21T05:56:21.600Z,42.70
2019-01-21T05:59:05.467Z,39.93
2019-01-21T06:01:49.541Z,41.90
2019-01-21T06:04:55.589Z,42.60
2019-01-21T06:07:28.431Z,42.83
2019-01-21T06:10:02.669Z,46.07
2019-01-21T06:12:50.974Z,45.07
2019-01-21T06:15:25.556Z,51.53
2019-01-21T06:18:15.184Z,47.73
2019-01-21T06:20:56.042Z,47.70
2019-01-21T06:23:42.602Z,45.53
2019-01-21T06:26:37.093Z,41.70
2019-01-21T06:29:11.581Z,52.97
2019-01-21T06:31:52.135Z,42.00
2019-01-21T06:34:41.782Z,44.73
2019-01-21T06:37:16.752Z,51.93
2019-01-21T06:39:57.175Z,54.97
2019-01-21T06:42:43.720Z,48.77
2019-01-21T06:45:36.049Z,50.53
2019-01-21T06:48:34.962Z,45.20
2019-01-21T06:51:29.185Z,45.77
2019-01-21T06:54:00.892Z,38.80
2019-01-21T06:56:47.396Z,42.77
2019-01-21T06:59:29.493Z,39.47
2019-01-21T07:02:17.553Z,44.97
2019-01-21T07:05:05.887Z,35.97
2019-01-21T07:07:48.864Z,41.57
2019-01-21T07:10:23.145Z,40.93
2019-01-21T07:13:03.832Z,38.83
2019-01-21T07:15:41.002Z,43.80
2019-01-21T07:18:39.979Z,45.67
2019-01-21T07:21:43.373Z,48.17
2019-01-21T07:24:42.241Z,45.27
2019-01-21T07:27:25.766Z,44.50
2019-01-21T07:30:09.225Z,47.90
2019-01-21T07:32:46.681Z,46.50
2019-01-21T07:35:39.263Z,46.53
2019-01-21T07:38:13.783Z,38.27
2019-01-21T07:40:51.693Z,33.63
2019-01-21T07:43:23.337Z,39.63
2019-01-21T07:46:00.477Z,38.37
2019-01-21T07:48:47.399Z,38.67
2019-01-21T07:51:40.222Z,41.40
2019-01-21T07:54:22.884Z,43.83
2019-01-21T07:57:00.498Z,52.20
2019-01-21T07:59:38.082Z,45.70
2019-01-21T08:02:18.545Z,44.37
2019-01-21T08:04:58.982Z,41.17
2019-01-21T08:07:33.210Z,40.73
2019-01-21T08:10:04.800Z,43.33
2019-01-21T08:12:48.578Z,41.00
2019-01-21T08:15:26.418Z,40.17
2019-01-21T08:18:13.217Z,37.50
2019-01-21T08:20:44.861Z,35.80
2019-01-21T08:23:30.366Z,37.37
2019-01-21T08:26:07.750Z,38.57
2019-01-21T08:28:51.211Z,37.27
2019-01-21T08:31:34.990Z,34.53
2019-01-21T08:34:24.904Z,37.27
2019-01-21T08:37:08.278Z,35.97
2019-01-21T08:39:42.853Z,33.57
2019-01-21T08:42:49.730Z,35.73
2019-01-21T08:45:33.225Z,38.60
2019-01-21T08:48:07.427Z,38.23
2019-01-21T08:50:47.967Z,40.43
2019-01-21T08:53:25.629Z,41.97
2019-01-21T08:56:03.041Z,37.27
2019-01-21T08:58:46.178Z,37.33
2019-01-21T09:01:23.396Z,37.73
2019-01-21T09:04:04.166Z,41.10
2019-01-21T09:07:01.245Z,41.30
2019-01-21T09:09:41.830Z,35.23
2019-01-21T09:12:18.678Z,40.40
2019-01-21T09:14:59.013Z,41.10
2019-01-21T09:17:39.610Z,46.10
2019-01-21T09:20:32.684Z,44.80
2019-01-21T09:23:13.361Z,39.53
2019-01-21T09:25:53.649Z,40.70
2019-01-21T09:28:34.391Z,41.47
2019-01-21T09:31:25.755Z,43.50
2019-01-21T09:34:03.458Z,40.60
2019-01-21T09:36:40.880Z,39.87
2019-01-21T09:39:15.538Z,41.83
2019-01-21T09:41:55.483Z,48.13
2019-01-21T09:44:33.007Z,39.20
2019-01-21T09:47:01.696Z,47.47
2019-01-21T09:49:29.224Z,42.93
2019-01-21T09:51:59.986Z,44.03
2019-01-21T09:54:28.910Z,47.37
2019-01-21T09:56:57.847Z,45.67
2019-01-21T09:59:26.565Z,41.87
2019-01-21T10:01:57.314Z,42.97
2019-01-21T10:04:28.961Z,41.37
2019-01-21T10:07:30.989Z,44.40
2019-01-21T10:10:05.174Z,42.80
2019-01-21T10:12:48.677Z,47.17
2019-01-21T10:15:38.181Z,39.57
2019-01-21T10:18:21.958Z,48.97
2019-01-21T10:21:08.667Z,41.87
2019-01-21T10:23:46.011Z,35.77
2019-01-21T10:26:34.189Z,42.87
2019-01-21T10:29:32.851Z,44.83
2019-01-21T10:32:19.673Z,41.50
2019-01-21T10:35:07.757Z,41.53
2019-01-21T10:38:07.530Z,44.50
2019-01-21T10:40:47.984Z,43.20
2019-01-21T10:43:25.474Z,43.17
2019-01-21T10:46:03.012Z,50.90
2019-01-21T10:48:46.446Z,45.87
2019-01-21T10:51:34.383Z,50.67
2019-01-21T10:54:08.735Z,48.63
2019-01-21T10:56:57.095Z,55.77
2019-01-21T10:59:31.624Z,46.77
2019-01-21T11:02:15.634Z,53.73
2019-01-21T11:05:07.874Z,49.97
2019-01-21T11:08:00.602Z,45.93
2019-01-21T11:10:37.997Z,47.63
2019-01-21T11:13:30.198Z,54.13
2019-01-21T11:16:10.625Z,48.43
2019-01-21T11:19:12.041Z,43.70
2019-01-21T11:21:43.716Z,38.07
2019-01-21T11:24:31.859Z,38.10
2019-01-21T11:27:12.536Z,43.87
2019-01-21T11:29:44.239Z,39.43
2019-01-21T11:32:30.914Z,39.07
2019-01-21T11:35:18.904Z,41.23
2019-01-21T11:38:11.580Z,38.00
2019-01-21T11:40:59.613Z,34.07
2019-01-21T11:43:37.060Z,38.33
2019-01-21T11:46:38.009Z,34.40
2019-01-21T11:49:24.009Z,33.13
2019-01-21T11:52:04.616Z,33.73
2019-01-21T11:54:54.190Z,31.93
2019-01-21T11:57:39.505Z,30.03
2019-01-21T12:00:16.912Z,32.60
2019-01-21T12:03:23.820Z,28.50
2019-01-21T12:05:54.805Z,31.60
2019-01-21T12:08:43.212Z,28.07
2019-01-21T12:11:21.140Z,32.03
2019-01-21T12:13:58.537Z,31.30
2019-01-21T12:17:03.569Z,31.97
2019-01-21T12:19:56.844Z,26.57
2019-01-21T12:22:57.513Z,29.00
2019-01-21T12:25:32.165Z,28.13
2019-01-21T12:28:12.936Z,29.80
2019-01-21T12:30:44.649Z,27.17
2019-01-21T12:33:31.264Z,28.93
2019-01-21T12:36:06.021Z,31.57
2019-01-21T12:38:54.113Z,26.67
2019-01-21T12:41:46.824Z,29.33
2019-01-21T12:44:36.742Z,30.57
2019-01-21T12:47:29.411Z,29.70
2019-01-21T12:50:12.397Z,28.33
2019-01-21T12:52:45.743Z,29.03
2019-01-21T12:55:20.955Z,29.17
2019-01-21T12:58:10.707Z,27.70
2019-01-21T13:00:54.013Z,26.93
2019-01-21T13:03:40.587Z,30.37
2019-01-21T13:06:17.835Z,29.83
2019-01-21T13:09:04.444Z,36.13
2019-01-21T13:11:35.786Z,32.37
2019-01-21T13:14:19.143Z,30.73
2019-01-21T13:16:50.787Z,29.93
2019-01-21T13:19:54.176Z,30.03
2019-01-21T13:22:25.917Z,30.70
2019-01-21T13:25:06.522Z,28.05
2019-01-21T13:27:38.199Z,29.67
2019-01-21T13:30:14.209Z,32.17
2019-01-21T13:32:48.946Z,33.73
2019-01-21T13:35:32.580Z,29.00
2019-01-21T13:38:07.239Z,29.95
2019-01-21T13:41:00.247Z,28.90
2019-01-21T13:43:42.722Z,31.48
2019-01-21T13:46:25.800Z,26.68
2019-01-21T13:49:09.130Z,29.87
2019-01-21T13:51:52.752Z,27.25
2019-01-21T13:54:30.355Z,27.77
2019-01-21T13:57:07.716Z,28.77
2019-01-21T14:00:08.178Z,30.37
2019-01-21T14:02:59.779Z,26.95
2019-01-21T14:05:34.105Z,27.93
2019-01-21T14:08:08.558Z,32.10
2019-01-21T14:10:43.115Z,30.10
2019-01-21T14:13:26.515Z,29.80
2019-01-21T14:16:09.091Z,33.17
2019-01-21T14:18:43.539Z,31.87
2019-01-21T14:21:30.228Z,30.33
2019-01-21T14:24:18.158Z,33.17
2019-01-21T14:27:09.403Z,30.27
2019-01-21T14:29:49.665Z,34.10
2019-01-21T14:32:23.838Z,29.30
2019-01-21T14:35:13.813Z,31.90
2019-01-21T14:38:11.123Z,35.17
2019-01-21T14:41:04.424Z,34.70
2019-01-21T14:43:36.058Z,41.80
2019-01-21T14:46:13.880Z,38.03
2019-01-21T14:48:57.271Z,37.80
2019-01-21T14:51:34.790Z,38.07
2019-01-21T14:54:25.498Z,38.50
2019-01-21T14:57:18.215Z,36.93
2019-01-21T14:59:52.378Z,39.60
2019-01-21T15:02:36.142Z,38.73
2019-01-21T15:05:35.077Z,40.83
2019-01-21T15:08:06.836Z,39.97
2019-01-21T15:10:44.269Z,38.07
2019-01-21T15:13:28.294Z,39.97
2019-01-21T15:16:08.563Z,34.27
2019-01-21T15:18:46.797Z,40.70
2019-01-21T15:21:23.767Z,32.20
2019-01-21T15:24:03.004Z,35.47
2019-01-21T15:26:40.018Z,35.47
2019-01-21T15:29:26.769Z,34.00
2019-01-21T15:32:19.700Z,33.43
2019-01-21T15:34:54.161Z,34.73
2019-01-21T15:37:57.705Z,33.40
2019-01-21T15:40:35.384Z,37.87
2019-01-21T15:43:15.567Z,38.83
2019-01-21T15:46:09.589Z,41.40
2019-01-21T15:48:47.198Z,39.57
2019-01-21T15:51:33.808Z,44.07
2019-01-21T15:54:08.189Z,38.87
2019-01-21T15:56:51.818Z,38.40
2019-01-21T15:59:38.649Z,45.47
2019-01-21T16:02:19.124Z,38.50
2019-01-21T16:04:53.843Z,43.00
2019-01-21T16:07:28.597Z,49.23
2019-01-21T16:10:00.255Z,41.13
2019-01-21T16:12:34.526Z,44.47
2019-01-21T16:15:27.410Z,46.17
2019-01-21T16:18:10.807Z,45.13
2019-01-21T16:20:48.243Z,63.97
2019-01-21T16:23:36.349Z,58.03
2019-01-21T16:26:05.472Z,47.80
2019-01-21T16:28:37.172Z,51.57
2019-01-21T16:31:08.801Z,51.53
2019-01-21T16:34:05.734Z,49.83
2019-01-21T16:36:59.316Z,49.70
2019-01-21T16:39:40.077Z,54.63
2019-01-21T16:42:13.342Z,50.77
2019-01-21T16:44:43.679Z,52.40
2019-01-21T16:47:12.319Z,52.83
2019-01-21T16:49:40.992Z,52.37
2019-01-21T16:52:09.648Z,55.43
2019-01-21T16:54:38.258Z,69.23
2019-01-21T16:57:06.837Z,184.50
2019-01-21T16:59:35.472Z,67.10
2019-01-21T17:02:04.319Z,71.57
2019-01-21T17:04:32.908Z,63.93
2019-01-21T17:07:01.514Z,64.37
2019-01-21T17:09:31.078Z,55.10
2019-01-21T17:12:01.394Z,57.67
2019-01-21T17:14:34.492Z,58.33
2019-01-21T17:17:03.146Z,68.93
2019-01-21T17:19:33.697Z,57.43
2019-01-21T17:22:05.426Z,53.87
2019-01-21T17:24:36.627Z,56.60
2019-01-21T17:27:05.268Z,60.57
2019-01-21T17:29:37.133Z,59.77
2019-01-21T17:32:10.292Z,62.17
2019-01-21T17:34:39.028Z,66.80
2019-01-21T17:37:14.748Z,58.63
2019-01-21T17:39:43.345Z,59.67
2019-01-21T17:42:11.942Z,69.37
2019-01-21T17:44:40.565Z,60.73
2019-01-21T17:47:09.228Z,61.27
2019-01-21T17:49:37.850Z,59.33
2019-01-21T17:52:06.513Z,56.50
2019-01-21T17:54:36.594Z,58.63
2019-01-21T17:57:05.295Z,62.03
2019-01-21T17:59:34.224Z,64.40
2019-01-21T18:02:02.912Z,66.27
2019-01-21T18:04:31.855Z,54.30
2019-01-21T18:07:00.474Z,64.47
2019-01-21T18:09:29.072Z,63.73
2019-01-21T18:11:57.756Z,57.47
2019-01-21T18:14:26.510Z,55.47
2019-01-21T18:16:55.131Z,58.17
2019-01-21T18:19:24.085Z,55.47
2019-01-21T18:21:52.776Z,59.60
2019-01-21T18:24:21.703Z,60.10
2019-01-21T18:26:50.311Z,60.17
2019-01-21T18:29:19.472Z,56.00
2019-01-21T18:31:48.100Z,60.17
2019-01-21T18:34:16.696Z,60.17
2019-01-21T18:36:45.315Z,54.90
2019-01-21T18:39:13.962Z,61.03
2019-01-21T18:41:42.585Z,55.80
2019-01-21T18:44:11.168Z,60.77
2019-01-21T18:46:39.861Z,59.03
2019-01-21T18:49:08.519Z,58.30
2019-01-21T18:51:37.129Z,67.67
2019-01-21T18:54:05.823Z,62.20
2019-01-21T18:56:34.827Z,68.57
2019-01-21T18:59:03.425Z,61.90
2019-01-21T19:01:32.033Z,58.43
2019-01-21T19:04:00.635Z,57.23
2019-01-21T19:06:29.238Z,53.73
2019-01-21T19:08:57.831Z,57.93
2019-01-21T19:11:26.599Z,65.57
2019-01-21T19:13:55.280Z,57.57
2019-01-21T19:16:23.905Z,58.87
2019-01-21T19:18:52.494Z,61.83
2019-01-21T19:21:21.109Z,63.77
2019-01-21T19:23:49.705Z,64.93
2019-01-21T19:26:18.327Z,63.03
2019-01-21T19:28:46.916Z,58.87
2019-01-21T19:31:15.536Z,66.53
2019-01-21T19:33:44.521Z,65.40
2019-01-21T19:36:13.123Z,61.23
2019-01-21T19:38:41.741Z,62.70
2019-01-21T19:41:10.341Z,67.40
2019-01-21T19:43:38.919Z,60.10
2019-01-21T19:46:07.945Z,67.03
2019-01-21T19:48:36.535Z,63.10
2019-01-21T19:51:05.256Z,67.10
2019-01-21T19:53:34.306Z,63.70
2019-01-21T19:56:02.892Z,69.07
2019-01-21T19:58:31.900Z,73.73
2019-01-21T20:01:00.493Z,61.10
2019-01-21T20:03:29.181Z,62.70
2019-01-21T20:05:58.116Z,76.73
2019-01-21T20:08:26.733Z,70.27
2019-01-21T20:10:55.323Z,68.60
2019-01-21T20:13:24.057Z,64.13
2019-01-21T20:15:52.644Z,67.27
2019-01-21T20:18:21.266Z,63.97
2019-01-21T20:20:49.850Z,75.20
2019-01-21T20:23:18.469Z,63.07
2019-01-21T20:25:47.458Z,64.67
2019-01-21T20:28:16.068Z,62.30
2019-01-21T20:30:44.649Z,62.83
2019-01-21T20:33:13.330Z,65.40
2019-01-21T20:35:41.921Z,63.13
2019-01-21T20:38:10.540Z,62.57
2019-01-21T20:40:39.136Z,65.60
2019-01-21T20:43:07.755Z,60.33
2019-01-21T20:45:36.756Z,66.97
2019-01-21T20:48:05.442Z,64.73
2019-01-21T20:50:35.281Z,65.60
2019-01-21T20:53:04.284Z,62.47
2019-01-21T20:55:32.998Z,65.77
2019-01-21T20:58:10.593Z,62.03
2019-01-21T21:00:39.194Z,66.77
2019-01-21T21:03:07.924Z,65.23
2019-01-21T21:05:36.574Z,61.77
2019-01-21T21:08:05.365Z,65.50
2019-01-21T21:10:34.079Z,65.63
2019-01-21T21:13:02.774Z,64.57
2019-01-21T21:15:33.017Z,73.63
2019-01-21T21:18:01.657Z,58.83
2019-01-21T21:20:30.234Z,64.17
2019-01-21T21:22:58.917Z,62.13
2019-01-21T21:25:27.873Z,63.17
2019-01-21T21:27:56.488Z,61.43
2019-01-21T21:30:32.414Z,65.70
2019-01-21T21:33:01.276Z,65.43
2019-01-21T21:35:29.831Z,60.47
2019-01-21T21:37:58.441Z,68.17
2019-01-21T21:40:27.034Z,65.10
2019-01-21T21:42:55.648Z,71.50
2019-01-21T21:45:24.233Z,64.23
2019-01-21T21:47:53.056Z,64.10
2019-01-21T21:50:29.650Z,66.83
2019-01-21T21:52:58.507Z,59.97
2019-01-21T21:55:27.104Z,66.90
2019-01-21T21:57:55.725Z,67.87
2019-01-21T22:00:26.656Z,62.50
2019-01-21T22:02:55.264Z,67.97
2019-01-21T22:05:24.321Z,62.87
2019-01-21T22:07:53.249Z,68.77
2019-01-21T22:10:24.483Z,60.10
2019-01-21T22:12:53.169Z,58.57
2019-01-21T22:15:23.294Z,63.20
2019-01-21T22:17:52.071Z,63.07
2019-01-21T22:20:22.599Z,64.13
2019-01-21T22:22:51.216Z,68.40
2019-01-21T22:25:20.347Z,63.03
2019-01-21T22:27:49.096Z,63.17
2019-01-21T22:30:23.152Z,60.50
2019-01-21T22:32:52.170Z,66.03
2019-01-21T22:35:21.128Z,62.20
2019-01-21T22:37:49.715Z,61.60
2019-01-21T22:40:22.195Z,59.93
2019-01-21T22:42:50.779Z,53.50
2019-01-21T22:45:20.346Z,63.53
2019-01-21T22:47:49.013Z,61.07
2019-01-21T22:50:19.957Z,62.73
2019-01-21T22:53:00.692Z,59.03
2019-01-21T22:55:19.090Z,59.23
2019-01-21T22:57:47.782Z,62.17
2019-01-21T23:00:22.170Z,58.07
2019-01-21T23:02:50.754Z,66.23
2019-01-21T23:05:19.431Z,68.23
2019-01-21T23:07:48.100Z,67.73
2019-01-21T23:10:16.799Z,68.00
2019-01-21T23:12:45.358Z,65.07
2019-01-21T23:15:13.945Z,61.67
2019-01-21T23:17:42.514Z,62.50
2019-01-21T23:20:11.498Z,68.50
2019-01-21T23:22:40.138Z,60.73
2019-01-21T23:25:08.898Z,60.27
2019-01-21T23:27:37.878Z,55.87
2019-01-21T23:30:12.569Z,62.10
2019-01-21T23:32:41.244Z,68.10
2019-01-21T23:35:09.988Z,62.77
2019-01-21T23:37:41.791Z,61.57
2019-01-21T23:40:11.955Z,58.67
2019-01-21T23:42:40.520Z,64.20
2019-01-21T23:45:10.824Z,67.20
2019-01-21T23:47:39.367Z,59.27
2019-01-21T23:50:10.877Z,61.33
2019-01-21T23:52:39.935Z,59.70
2019-01-21T23:55:10.871Z,58.83
2019-01-21T23:57:39.434Z,57.50
